アティラウ の空港の天気 - METARとTAF

Atyrau Airport ( UATG / GUW ) - カザフスタン Atyrau
飛行場実況気象(Metar)
観測時間06/29 06:30 ORAT (06/29 01:30 UTC)
風向・風速東北東 3m/s
視程10km以上
天気現象
なし
気温22℃
湿度50%
気圧1010hPa
METARUATG 290130Z 06003MPS CAVOK 22/11 Q1010 R32/CLRD70 NOSIG RMK QFE760/1013
過去の天気等 Google飛行場航空写真 Wunderground天気予報

過去48時間のMETAR

飛行場予報(TAF)
発表時間: 6/29 04:01 ORAT (6/28 23:01 UTC)
予報対象時間: 29日5時 ORAT ~ 30日5時 ORAT
風向・風速不定 2m/s
視程10km以上
全天の4割程度の積乱雲 雲底高度 1,010m
29日7時 ORAT ~ 29日9時 ORAT に徐々に
風向・風速南東 5m/s
29日13時 ORAT ~ 29日15時 ORAT に徐々に
風向・風速南南西 7m/s
TAF UATG 282301Z 2900/2924 VRB02MPS 9999 SCT033CB TX36/2912Z TN20/2900Z
BECMG 2902/2904 13005MPS
BECMG 2908/2910 20007MPS